Time;durP1;ratioP1;P1;durP2;ratioP2;P2;SDS_P1;SDS_P2;PMS_P1;PMS_P2;Temp;Humidity;BMP_temperature;BMP_pressure;BME280_temperature;BME280_humidity;BME280_pressure;Samples;Min_cycle;Max_cycle;Signal;HPM_P1;HPM_P2
2021/04/27 00:00:47;;;;;;;64.75;29.40;;;;;;;1.38;60.47;100320.56;3587734;40;20044;-69
2021/04/27 00:03:14;;;;;;;59.85;29.40;;;;;;;1.36;60.25;100317.13;3588145;40;20044;-68
2021/04/27 00:05:41;;;;;;;53.92;27.25;;;;;;;1.36;60.48;100318.84;3589798;40;20029;-68
2021/04/27 00:08:07;;;;;;;61.17;29.50;;;;;;;1.35;60.54;100315.41;3589872;40;20037;-69
2021/04/27 00:10:37;;;;;;;55.92;28.75;;;;;;;1.34;60.45;100315.41;3589413;40;20028;-69
2021/04/27 00:13:03;;;;;;;76.75;34.28;;;;;;;1.33;60.41;100309.38;3589705;40;20039;-69
2021/04/27 00:15:31;;;;;;;68.20;34.30;;;;;;;1.34;60.49;100305.94;3589296;40;20287;-69
2021/04/27 00:17:58;;;;;;;79.90;38.50;;;;;;;1.35;60.65;100302.50;3589759;40;20464;-68
2021/04/27 00:20:26;;;;;;;83.18;37.53;;;;;;;1.35;60.56;100302.50;3589281;40;20397;-70
2021/04/27 00:22:53;;;;;;;73.28;36.15;;;;;;;1.36;60.65;100303.34;3589559;40;20374;-68
2021/04/27 00:25:19;;;;;;;79.72;36.90;;;;;;;1.37;60.46;100295.59;3589309;40;20025;-69
2021/04/27 00:27:48;;;;;;;69.45;34.92;;;;;;;1.36;60.61;100301.63;3589425;40;20403;-68
2021/04/27 00:30:16;;;;;;;63.92;32.17;;;;;;;1.35;60.59;100302.50;3589289;40;20024;-69
2021/04/27 00:32:43;;;;;;;65.63;31.52;;;;;;;1.33;60.57;100300.78;3589651;40;20044;-68
2021/04/27 00:35:12;;;;;;;63.40;30.88;;;;;;;1.31;60.81;100300.78;3589337;40;20510;-68
2021/04/27 00:37:38;;;;;;;62.90;31.42;;;;;;;1.32;60.67;100302.50;3588899;40;20040;-69
2021/04/27 00:40:06;;;;;;;57.92;28.33;;;;;;;1.32;60.61;100297.34;3589081;40;20025;-68
2021/04/27 00:42:34;;;;;;;53.42;26.58;;;;;;;1.33;60.88;100298.19;3589189;40;20036;-69
2021/04/27 00:45:01;;;;;;;59.00;28.30;;;;;;;1.33;60.76;100296.47;3589090;40;20041;-68
2021/04/27 00:47:27;;;;;;;55.22;27.88;;;;;;;1.32;60.73;100292.16;3589157;40;20402;-68
2021/04/27 00:49:55;;;;;;;56.55;29.40;;;;;;;1.29;60.82;100294.75;3589029;40;20149;-68
2021/04/27 00:52:23;;;;;;;62.28;30.55;;;;;;;1.29;60.76;100294.75;3588890;40;20036;-68
2021/04/27 00:54:51;;;;;;;67.05;29.95;;;;;;;1.30;60.89;100293.03;3588946;40;20041;-68
2021/04/27 00:57:17;;;;;;;69.43;31.13;;;;;;;1.27;60.90;100293.03;3589142;40;20138;-67
2021/04/27 00:59:44;;;;;;;58.25;28.67;;;;;;;1.25;61.07;100294.72;3589426;40;20051;-68
2021/04/27 01:02:10;;;;;;;63.65;29.75;;;;;;;1.25;61.04;100290.47;3588966;40;20074;-68
2021/04/27 01:04:37;;;;;;;63.47;28.88;;;;;;;1.25;60.95;100287.88;3588933;40;20425;-68
2021/04/27 01:07:03;;;;;;;56.88;26.85;;;;;;;1.28;60.99;100295.63;3589077;40;20102;-68
2021/04/27 01:09:36;;;;;;;74.05;28.75;;;;;;;1.25;61.19;100293.03;3589026;40;20394;-69
2021/04/27 01:12:11;;;;;;;62.72;28.20;;;;;;;1.25;61.20;100285.28;3589042;40;20154;-68
2021/04/27 01:14:39;;;;;;;62.50;29.45;;;;;;;1.24;61.17;100283.53;3589002;40;20025;-69
2021/04/27 01:17:07;;;;;;;60.78;30.95;;;;;;;1.22;61.21;100285.25;3588934;40;20069;-68
2021/04/27 01:19:49;;;;;;;63.95;29.55;;;;;;;1.21;61.20;100288.72;3589001;40;20422;-69
2021/04/27 01:22:28;;;;;;;64.32;31.65;;;;;;;1.20;61.17;100282.69;3589105;40;20025;-68
2021/04/27 01:25:00;;;;;;;70.25;30.27;;;;;;;1.18;61.08;100284.41;3588829;40;20033;-69
2021/04/27 01:27:28;;;;;;;61.38;27.27;;;;;;;1.18;61.00;100283.56;3588815;40;20037;-68
2021/04/27 01:29:55;;;;;;;62.58;30.13;;;;;;;1.16;61.45;100285.28;3588881;40;20041;-68
2021/04/27 01:32:21;;;;;;;61.92;27.02;;;;;;;1.13;61.34;100293.03;3596560;40;20037;-69
2021/04/27 01:34:48;;;;;;;57.30;28.70;;;;;;;1.08;61.69;100289.59;3588835;40;20032;-69
2021/04/27 01:37:15;;;;;;;63.50;29.38;;;;;;;1.05;61.77;100292.16;3589074;40;20032;-68
2021/04/27 01:39:42;;;;;;;60.53;27.60;;;;;;;1.02;61.70;100298.16;3588652;40;20397;-68
2021/04/27 01:42:09;;;;;;;60.35;27.02;;;;;;;0.99;61.65;100292.13;3588773;40;20035;-68
2021/04/27 01:44:39;;;;;;;62.65;26.88;;;;;;;0.94;61.84;100293.84;3588721;40;20032;-69
2021/04/27 01:47:08;;;;;;;68.82;31.90;;;;;;;0.90;61.85;100291.28;3588153;40;20025;-69
2021/04/27 01:49:34;;;;;;;82.38;34.85;;;;;;;0.88;61.75;100286.97;3588143;40;20301;-68
2021/04/27 01:52:00;;;;;;;80.15;35.70;;;;;;;0.89;61.84;100286.97;3588931;40;20055;-68
2021/04/27 01:54:30;;;;;;;73.53;35.75;;;;;;;0.85;61.99;100285.25;3588673;40;20395;-69
2021/04/27 01:56:56;;;;;;;85.40;37.70;;;;;;;0.87;61.68;100287.84;3588660;40;20033;-69
2021/04/27 01:59:23;;;;;;;80.32;35.75;;;;;;;0.84;61.91;100283.53;3588546;40;20405;-69
2021/04/27 02:01:51;;;;;;;77.90;37.53;;;;;;;0.84;61.80;100280.97;3588644;40;20057;-68
2021/04/27 02:04:20;;;;;;;73.72;33.33;;;;;;;0.80;62.00;100281.78;3588548;40;20032;-68
2021/04/27 02:06:47;;;;;;;72.68;31.75;;;;;;;0.82;61.89;100284.38;3588570;40;20054;-68
2021/04/27 02:09:14;;;;;;;59.90;28.40;;;;;;;0.78;61.96;100280.91;3589456;40;20270;-68
2021/04/27 02:11:44;;;;;;;61.80;30.42;;;;;;;0.74;62.09;100281.78;3588727;40;20032;-70
2021/04/27 02:14:13;;;;;;;65.68;30.92;;;;;;;0.72;62.18;100278.34;3589434;40;20040;-68
2021/04/27 02:16:52;;;;;;;57.20;29.42;;;;;;;0.70;62.07;100277.47;3588670;40;20040;-68
2021/04/27 02:19:22;;;;;;;67.13;30.20;;;;;;;0.68;61.84;100276.63;3589501;40;20060;-69
2021/04/27 02:21:49;;;;;;;63.10;29.92;;;;;;;0.68;61.95;100271.47;3588511;40;20032;-69
2021/04/27 02:24:15;;;;;;;58.95;28.35;;;;;;;0.68;62.19;100274.03;3589225;40;20040;-69
2021/04/27 02:26:41;;;;;;;53.95;27.38;;;;;;;0.64;61.98;100274.91;3588784;40;20035;-68
2021/04/27 02:29:09;;;;;;;56.22;27.40;;;;;;;0.64;62.10;100274.91;3589086;40;20078;-68
2021/04/27 02:31:35;;;;;;;48.80;23.92;;;;;;;0.63;62.33;100273.19;3588672;40;20110;-69
2021/04/27 02:34:04;;;;;;;48.38;23.42;;;;;;;0.59;62.24;100271.41;3588373;40;20029;-68
2021/04/27 02:36:36;;;;;;;36.33;21.75;;;;;;;0.56;62.17;100267.13;3588406;40;20039;-69
2021/04/27 02:39:05;;;;;;;39.45;20.05;;;;;;;0.56;61.92;100266.25;3595191;40;20281;-69
2021/04/27 02:41:32;;;;;;;34.50;18.20;;;;;;;0.53;62.15;100271.41;3574268;40;20037;-69
2021/04/27 02:43:58;;;;;;;41.08;20.05;;;;;;;0.53;62.21;100263.69;3574982;40;20049;-69
2021/04/27 02:46:25;;;;;;;32.40;18.63;;;;;;;0.49;62.24;100270.56;3568894;40;20037;-69
2021/04/27 02:48:51;;;;;;;36.75;20.02;;;;;;;0.46;62.46;100269.69;3567650;40;20037;-69
2021/04/27 02:51:17;;;;;;;37.05;18.67;;;;;;;0.47;62.24;100271.41;3567414;40;20041;-68
2021/04/27 02:53:44;;;;;;;35.20;18.67;;;;;;;0.46;62.36;100272.25;3568031;40;20229;-68
2021/04/27 02:56:10;;;;;;;34.20;20.90;;;;;;;0.46;62.38;100269.69;3567324;40;20040;-69
2021/04/27 02:58:36;;;;;;;36.80;19.73;;;;;;;0.45;62.56;100268.81;3566316;40;20294;-69
2021/04/27 03:01:03;;;;;;;37.13;20.80;;;;;;;0.45;62.48;100268.81;3566855;40;20115;-68
2021/04/27 03:03:29;;;;;;;35.85;19.42;;;;;;;0.47;62.76;100274.00;3566582;40;20041;-68
2021/04/27 03:05:55;;;;;;;32.63;19.15;;;;;;;0.44;62.52;100271.41;3566916;40;20045;-68
2021/04/27 03:08:21;;;;;;;35.30;19.35;;;;;;;0.40;62.69;100275.66;3567274;40;20068;-68
2021/04/27 03:10:48;;;;;;;38.20;20.02;;;;;;;0.40;62.80;100279.97;3566743;40;20030;-68
2021/04/27 03:13:15;;;;;;;43.50;21.08;;;;;;;0.40;62.90;100279.97;3567313;40;20056;-69
2021/04/27 03:19:46;;;;;;;43.33;22.48;;;;;;;0.42;62.49;100283.44;3569341;40;20522;-68
2021/04/27 03:22:13;;;;;;;42.05;21.10;;;;;;;0.41;62.60;100284.25;3568195;40;20050;-68
2021/04/27 03:24:39;;;;;;;49.70;23.75;;;;;;;0.41;62.98;100282.53;3567927;40;20029;-69
2021/04/27 03:27:06;;;;;;;39.45;21.77;;;;;;;0.44;62.70;100279.13;3566898;40;20034;-69
2021/04/27 03:29:32;;;;;;;43.72;21.67;;;;;;;0.42;62.97;100283.44;3567897;40;20030;-69
2021/04/27 03:31:59;;;;;;;36.90;20.38;;;;;;;0.45;62.73;100284.31;3568004;40;20034;-68
2021/04/27 03:34:25;;;;;;;43.60;21.25;;;;;;;0.51;62.66;100284.31;3568042;40;20084;-69
2021/04/27 03:36:51;;;;;;;44.83;23.77;;;;;;;0.54;62.79;100281.72;3567896;40;20045;-68
2021/04/27 03:39:17;;;;;;;38.20;21.63;;;;;;;0.55;62.60;100282.59;3568613;40;20037;-68
2021/04/27 03:41:43;;;;;;;40.58;22.25;;;;;;;0.58;62.89;100286.03;3569624;40;20037;-68
2021/04/27 03:44:10;;;;;;;42.97;23.38;;;;;;;0.65;62.71;100283.50;3569232;40;20045;-68
2021/04/27 03:46:36;;;;;;;40.55;21.55;;;;;;;0.70;62.74;100290.38;3569528;40;20030;-68
2021/04/27 03:49:03;;;;;;;41.78;24.05;;;;;;;0.75;62.63;100287.81;3570073;40;20033;-68
2021/04/27 03:51:29;;;;;;;45.70;23.48;;;;;;;0.79;62.77;100285.22;3569795;40;20119;-69
2021/04/27 03:53:55;;;;;;;43.05;23.45;;;;;;;0.84;62.74;100295.59;3569246;40;20038;-68
2021/04/27 03:56:21;;;;;;;48.38;24.60;;;;;;;0.88;62.97;100285.25;3569867;40;20042;-69
2021/04/27 03:58:52;;;;;;;52.28;26.25;;;;;;;0.92;62.74;100291.28;3569341;40;20045;-70
2021/04/27 04:01:19;;;;;;;52.55;25.85;;;;;;;1.00;62.90;100293.84;3569429;40;20026;-69
2021/04/27 04:03:45;;;;;;;51.08;27.20;;;;;;;1.04;62.77;100293.00;3569192;40;20038;-69
2021/04/27 04:06:11;;;;;;;60.60;27.95;;;;;;;1.08;62.81;100287.00;3569345;40;20034;-67
2021/04/27 04:08:38;;;;;;;51.70;27.23;;;;;;;1.14;62.66;100287.00;3569261;40;20172;-68
2021/04/27 04:11:05;;;;;;;59.72;27.60;;;;;;;1.18;62.94;100291.28;3569453;40;20034;-68
2021/04/27 04:13:32;;;;;;;47.72;25.63;;;;;;;1.24;62.90;100288.69;3569160;40;20038;-68
2021/04/27 04:15:58;;;;;;;49.00;25.80;;;;;;;1.30;62.72;100288.72;3569195;40;20045;-68
2021/04/27 04:18:25;;;;;;;50.58;24.88;;;;;;;1.36;62.99;100288.72;3569789;40;20033;-68
2021/04/27 04:20:52;;;;;;;47.50;23.13;;;;;;;1.42;62.94;100286.13;3569289;40;20102;-68
2021/04/27 04:23:19;;;;;;;38.70;21.95;;;;;;;1.47;62.67;100287.00;3569668;40;20391;-68
2021/04/27 04:25:45;;;;;;;47.90;23.27;;;;;;;1.55;62.80;100293.88;3569193;40;20107;-68
2021/04/27 04:28:11;;;;;;;42.75;23.63;;;;;;;1.62;62.76;100286.09;3568657;40;20037;-69
2021/04/27 04:30:38;;;;;;;45.85;22.88;;;;;;;1.66;62.69;100286.94;3569240;40;20030;-70
2021/04/27 04:33:04;;;;;;;41.50;22.50;;;;;;;1.72;62.38;100294.72;3569537;40;20347;-68
2021/04/27 04:35:32;;;;;;;44.30;24.48;;;;;;;1.79;62.54;100299.00;3569238;40;20030;-69
2021/04/27 04:37:58;;;;;;;47.55;26.20;;;;;;;1.87;62.51;100306.72;3574465;40;20111;-69
2021/04/27 04:40:25;;;;;;;42.67;26.13;;;;;;;1.92;62.43;100300.69;3569316;40;20034;-69
2021/04/27 04:42:51;;;;;;;50.97;26.17;;;;;;;2.00;62.60;100304.13;3569017;40;20053;-69
2021/04/27 04:45:18;;;;;;;53.70;26.45;;;;;;;2.10;62.35;100305.81;3569204;40;20029;-68
2021/04/27 04:47:46;;;;;;;53.58;29.50;;;;;;;2.17;62.26;100306.66;3576883;40;20130;-68
2021/04/27 04:50:14;;;;;;;57.95;28.90;;;;;;;2.25;62.12;100298.88;3583338;40;20057;-69
2021/04/27 04:52:42;;;;;;;42.30;24.27;;;;;;;2.36;62.21;100307.47;3583996;40;20048;-68
2021/04/27 04:55:10;;;;;;;43.72;24.63;;;;;;;2.45;61.97;100307.41;3584164;40;20305;-68
2021/04/27 04:57:37;;;;;;;45.63;24.20;;;;;;;2.55;62.10;100303.06;3581986;40;20029;-69
2021/04/27 05:00:05;;;;;;;34.47;20.13;;;;;;;2.61;62.04;100303.03;3583536;40;20025;-68
2021/04/27 05:02:31;;;;;;;32.75;19.67;;;;;;;2.70;62.06;100303.81;3584230;40;20048;-68
2021/04/27 05:04:57;;;;;;;30.73;18.48;;;;;;;2.79;62.13;100302.06;3582219;40;20043;-68
2021/04/27 05:07:26;;;;;;;34.85;18.33;;;;;;;2.89;61.94;100303.72;3583284;40;20069;-68
2021/04/27 05:09:53;;;;;;;31.17;18.35;;;;;;;3.11;61.75;100300.09;3583209;40;20064;-69
2021/04/27 05:12:19;;;;;;;37.25;19.13;;;;;;;4.26;59.79;100300.75;3579680;40;20037;-68
2021/04/27 05:14:45;;;;;;;25.35;16.38;;;;;;;5.86;56.61;100294.00;3584032;40;20037;-67
2021/04/27 05:17:15;;;;;;;25.38;15.68;;;;;;;6.23;56.42;100296.78;3583402;40;20033;-68
2021/04/27 05:19:41;;;;;;;26.92;15.45;;;;;;;6.03;57.05;100302.38;3583143;40;20029;-67
2021/04/27 05:22:09;;;;;;;26.50;15.50;;;;;;;5.76;57.88;100299.38;3581725;40;20037;-67
2021/04/27 05:24:36;;;;;;;29.85;15.20;;;;;;;5.58;58.58;100302.28;3588687;40;20025;-68
2021/04/27 05:27:04;;;;;;;32.33;17.40;;;;;;;5.53;58.50;100308.47;3579125;40;20034;-67
2021/04/27 05:29:30;;;;;;;27.80;18.08;;;;;;;5.72;58.08;100302.06;3577263;40;20044;-68
2021/04/27 05:31:57;;;;;;;32.97;18.23;;;;;;;6.31;56.46;100300.97;3574938;40;20445;-69
2021/04/27 05:34:25;;;;;;;32.63;18.38;;;;;;;7.15;54.47;100309.56;3576266;40;20029;-68
2021/04/27 05:36:51;;;;;;;32.53;18.10;;;;;;;8.11;52.18;100296.66;3576839;40;20029;-68
2021/04/27 05:39:18;;;;;;;37.92;17.67;;;;;;;8.79;50.84;100299.09;3577474;40;20134;-68
2021/04/27 05:41:45;;;;;;;35.00;16.95;;;;;;;9.56;49.19;100305.34;3577551;40;20163;-68
2021/04/27 05:44:12;;;;;;;32.10;18.38;;;;;;;10.31;47.54;100301.00;3577912;40;20053;-68
2021/04/27 05:46:38;;;;;;;28.00;15.43;;;;;;;10.60;46.98;100302.53;3574344;40;20029;-68
2021/04/27 05:49:05;;;;;;;30.10;15.75;;;;;;;11.44;45.44;100301.00;3577431;40;20092;-68
2021/04/27 05:51:31;;;;;;;30.58;15.65;;;;;;;11.33;45.06;100298.81;3575838;40;20072;-68
2021/04/27 05:53:57;;;;;;;24.50;15.48;;;;;;;10.94;46.16;100301.25;3580632;40;20366;-68
2021/04/27 05:56:24;;;;;;;27.48;15.25;;;;;;;11.46;45.18;100307.06;3582824;40;20383;-69
2021/04/27 05:58:50;;;;;;;24.70;14.07;;;;;;;12.51;42.87;100292.88;3585290;40;20270;-70
2021/04/27 06:01:17;;;;;;;21.73;11.57;;;;;;;13.08;41.11;100296.31;3584522;40;20033;-69
2021/04/27 06:03:43;;;;;;;20.58;11.48;;;;;;;13.03;41.40;100300.94;3588100;40;20044;-68
2021/04/27 06:06:10;;;;;;;23.00;12.77;;;;;;;12.49;42.13;100299.09;3586302;40;20029;-68
2021/04/27 06:08:36;;;;;;;26.60;14.68;;;;;;;13.01;41.25;100301.94;3582705;40;20037;-67
2021/04/27 06:11:04;;;;;;;24.42;13.35;;;;;;;13.70;39.48;100296.81;3580211;40;20040;-70
2021/04/27 06:13:31;;;;;;;17.55;9.30;;;;;;;13.88;39.14;100300.31;3576489;40;20061;-70
2021/04/27 06:15:57;;;;;;;14.73;9.00;;;;;;;14.56;38.20;100298.50;3572725;40;20044;-68
2021/04/27 06:18:25;;;;;;;16.40;9.60;;;;;;;15.30;36.92;100300.56;3574043;40;20040;-67
2021/04/27 06:20:51;;;;;;;15.25;8.50;;;;;;;16.46;34.42;100298.03;3585057;40;20128;-69
2021/04/27 06:23:17;;;;;;;17.77;9.07;;;;;;;17.11;33.20;100297.50;3580580;40;20045;-69
2021/04/27 06:25:43;;;;;;;16.63;8.80;;;;;;;16.91;33.19;100297.91;3583147;40;20028;-68
2021/04/27 06:28:11;;;;;;;21.60;9.77;;;;;;;16.87;32.82;100299.06;3581884;40;20036;-69
2021/04/27 06:30:37;;;;;;;21.40;10.43;;;;;;;17.40;31.88;100300.03;3579749;40;20146;-68
2021/04/27 06:33:04;;;;;;;15.27;8.77;;;;;;;18.14;30.76;100302.97;3587999;40;20060;-68
2021/04/27 06:35:31;;;;;;;13.98;7.75;;;;;;;19.16;28.47;100295.72;3571781;40;20138;-68
2021/04/27 06:37:57;;;;;;;12.93;7.78;;;;;;;20.34;27.40;100297.44;3573820;40;20119;-68
2021/04/27 06:40:24;;;;;;;11.80;7.90;;;;;;;21.05;26.10;100295.41;3583753;40;20319;-67
2021/04/27 06:42:50;;;;;;;14.35;9.57;;;;;;;22.27;24.51;100293.16;3580452;40;20494;-68
2021/04/27 06:45:17;;;;;;;12.90;7.78;;;;;;;22.75;23.74;100291.56;3582250;40;20033;-68
2021/04/27 06:47:45;;;;;;;5.53;3.80;;;;;;;23.35;22.31;100286.22;3579207;40;20126;-68
2021/04/27 06:50:12;;;;;;;5.35;3.63;;;;;;;23.79;20.96;100290.19;3576226;40;20065;-68
2021/04/27 06:52:39;;;;;;;22.23;14.50;;;;;;;25.02;19.07;100292.78;3577901;40;20088;-67
2021/04/27 06:55:06;;;;;;;5.88;4.22;;;;;;;27.19;16.85;100279.38;3580616;40;20336;-68
2021/04/27 06:57:32;;;;;;;4.35;3.65;;;;;;;28.48;15.49;100280.38;3579508;40;20040;-68
2021/04/27 06:59:59;;;;;;;2.80;2.28;;;;;;;28.96;14.56;100281.22;3587516;40;20044;-67
2021/04/27 07:02:25;;;;;;;2.83;2.10;;;;;;;30.77;12.62;100274.94;3587847;40;20333;-68
2021/04/27 07:04:51;;;;;;;4.15;3.30;;;;;;;32.35;11.58;100281.09;3578672;40;20032;-68
2021/04/27 07:07:18;;;;;;;5.95;3.42;;;;;;;33.31;10.58;100273.78;3580801;40;20029;-68
2021/04/27 07:09:45;;;;;;;2.97;2.20;;;;;;;33.11;10.78;100275.59;3583662;40;20048;-68
2021/04/27 07:12:11;;;;;;;4.72;2.72;;;;;;;33.56;10.69;100269.47;3576477;40;20033;-68
2021/04/27 07:14:37;;;;;;;6.88;4.55;;;;;;;34.47;10.14;100277.78;3575537;40;20029;-67
2021/04/27 07:17:04;;;;;;;3.92;3.20;;;;;;;35.10;9.61;100271.69;3582650;40;20036;-68
2021/04/27 07:19:30;;;;;;;5.28;3.53;;;;;;;35.98;9.29;100272.56;3572192;40;20033;-68
2021/04/27 07:21:56;;;;;;;4.90;3.10;;;;;;;37.11;8.43;100269.41;3579857;40;20029;-69
2021/04/27 07:24:22;;;;;;;3.33;2.58;;;;;;;37.61;8.04;100276.47;3579484;40;20059;-68
2021/04/27 07:26:49;;;;;;;2.67;2.20;;;;;;;37.56;7.21;100266.25;3577811;40;20172;-68
2021/04/27 07:29:17;;;;;;;4.28;2.30;;;;;;;37.97;7.36;100265.34;3577822;40;20045;-69
2021/04/27 07:31:44;;;;;;;5.40;2.63;;;;;;;38.35;6.82;100264.88;3579635;40;20178;-68
2021/04/27 07:34:11;;;;;;;5.38;3.60;;;;;;;38.75;6.74;100272.34;3581893;40;20034;-68
2021/04/27 07:36:37;;;;;;;3.75;3.03;;;;;;;38.98;6.66;100272.25;3575092;40;20040;-68
2021/04/27 07:39:06;;;;;;;5.28;3.42;;;;;;;38.86;6.24;100273.34;3576259;40;20123;-69
2021/04/27 07:41:32;;;;;;;3.55;3.00;;;;;;;38.66;6.21;100271.03;3575073;40;20402;-68
2021/04/27 07:43:59;;;;;;;5.22;3.25;;;;;;;39.20;6.16;100271.59;3575807;40;20029;-69
2021/04/27 07:46:26;;;;;;;3.72;3.28;;;;;;;38.50;6.29;100267.09;3573907;40;20029;-69
2021/04/27 07:48:52;;;;;;;3.40;3.03;;;;;;;38.30;6.53;100267.50;3571729;40;20202;-69
2021/04/27 07:51:18;;;;;;;4.18;3.38;;;;;;;38.80;6.17;100266.13;3577100;40;20037;-69
2021/04/27 07:53:44;;;;;;;4.72;3.05;;;;;;;39.44;6.26;100262.16;3577698;40;20037;-69
2021/04/27 07:56:10;;;;;;;4.78;3.53;;;;;;;40.20;5.11;100263.41;3575962;40;20037;-69
2021/04/27 07:58:37;;;;;;;4.53;3.30;;;;;;;40.10;5.78;100266.00;3572821;40;20288;-69
2021/04/27 08:01:04;;;;;;;6.53;4.10;;;;;;;40.69;5.53;100259.94;3576499;40;20318;-68
2021/04/27 08:03:31;;;;;;;5.05;3.50;;;;;;;41.84;4.85;100264.13;3576909;40;20057;-68
2021/04/27 08:05:57;;;;;;;4.88;3.70;;;;;;;42.15;4.09;100262.47;3576292;40;20029;-69
2021/04/27 08:08:23;;;;;;;5.22;3.75;;;;;;;41.83;4.97;100265.22;3577117;40;20037;-69
2021/04/27 08:10:50;;;;;;;3.90;3.15;;;;;;;42.24;4.51;100268.28;3576847;40;20033;-68
2021/04/27 08:13:16;;;;;;;3.90;3.10;;;;;;;42.72;4.69;100258.91;3577606;40;20045;-68
2021/04/27 08:15:43;;;;;;;3.15;2.70;;;;;;;42.01;3.96;100264.81;3576985;40;20032;-69
2021/04/27 08:18:10;;;;;;;2.80;2.28;;;;;;;40.99;4.40;100264.97;3577258;40;20041;-69
2021/04/27 08:20:37;;;;;;;2.80;2.35;;;;;;;40.66;4.20;100266.78;3577041;40;20294;-70
2021/04/27 08:23:04;;;;;;;3.17;2.40;;;;;;;41.46;4.16;100251.44;3578601;40;20069;-68
2021/04/27 08:25:32;;;;;;;4.32;2.50;;;;;;;42.66;3.62;100253.63;3577919;40;20429;-69
2021/04/27 08:27:58;;;;;;;2.75;2.50;;;;;;;41.97;3.72;100258.19;3574922;40;20065;-72
2021/04/27 08:30:27;;;;;;;2.90;2.38;;;;;;;41.85;3.84;100264.97;3578853;40;20036;-70
2021/04/27 08:32:54;;;;;;;4.82;2.40;;;;;;;38.12;5.23;100265.72;3585005;40;20633;-72
2021/04/27 08:35:21;;;;;;;3.58;2.58;;;;;;;39.16;4.88;100259.44;3578358;40;20065;-71
2021/04/27 08:37:48;;;;;;;3.35;2.33;;;;;;;39.92;4.60;100264.31;3578382;40;20044;-72
2021/04/27 08:40:16;;;;;;;2.33;2.13;;;;;;;40.06;4.15;100273.09;3578824;40;20033;-72
2021/04/27 08:42:46;;;;;;;3.10;2.30;;;;;;;41.31;4.09;100263.13;3581495;40;20036;-72
2021/04/27 08:45:13;;;;;;;4.33;2.50;;;;;;;40.75;4.28;100262.47;3569584;40;20163;-71
2021/04/27 08:47:39;;;;;;;2.60;2.40;;;;;;;41.52;3.70;100260.56;3572904;40;20052;-72
2021/04/27 08:50:09;;;;;;;2.75;2.17;;;;;;;38.98;4.98;100265.94;3580662;40;20492;-71
2021/04/27 08:52:36;;;;;;;3.42;2.50;;;;;;;36.95;5.77;100259.13;3580886;40;20045;-71
2021/04/27 08:55:04;;;;;;;3.13;2.50;;;;;;;38.13;5.15;100266.56;3573124;40;20029;-72
2021/04/27 08:57:30;;;;;;;2.92;2.45;;;;;;;39.27;4.40;100262.13;3574213;40;20119;-72
2021/04/27 08:59:56;;;;;;;3.33;2.45;;;;;;;39.89;4.33;100253.84;3575420;40;20126;-72
2021/04/27 09:02:26;;;;;;;3.55;2.20;;;;;;;40.37;4.07;100252.34;3573921;40;20432;-72
2021/04/27 09:04:52;;;;;;;2.60;2.15;;;;;;;40.93;4.59;100255.00;3584660;40;20201;-72
2021/04/27 09:07:21;;;;;;;4.88;2.85;;;;;;;40.90;4.01;100247.28;3577687;40;20049;-72
2021/04/27 09:09:50;;;;;;;8.43;6.35;;;;;;;40.95;4.03;100252.84;3576845;40;20041;-72
2021/04/27 09:12:20;;;;;;;4.28;2.88;;;;;;;40.91;3.64;100254.44;3577365;40;20165;-73
2021/04/27 09:14:47;;;;;;;4.05;2.30;;;;;;;40.51;3.88;100252.84;3576767;40;20052;-72
2021/04/27 09:17:14;;;;;;;2.38;1.80;;;;;;;40.39;3.72;100252.13;3576951;40;20029;-71
2021/04/27 09:19:44;;;;;;;2.28;1.70;;;;;;;35.04;6.49;100261.69;3576560;40;20029;-72
2021/04/27 09:22:16;;;;;;;6.70;2.00;;;;;;;30.44;8.24;100264.50;3578467;40;20064;-72
2021/04/27 09:24:45;;;;;;;4.57;2.25;;;;;;;27.76;9.49;100272.25;3578101;40;20030;-72
2021/04/27 09:27:22;;;;;;;2.40;1.88;;;;;;;25.90;10.47;100269.66;3577866;40;20302;-72
2021/04/27 09:29:48;;;;;;;4.15;2.15;;;;;;;30.25;7.84;100259.66;3577462;40;20029;-72
2021/04/27 09:32:29;;;;;;;4.40;2.15;;;;;;;33.88;6.30;100240.63;3577578;40;20034;-72
2021/04/27 09:34:56;;;;;;;3.28;2.10;;;;;;;35.60;5.80;100241.81;3583436;40;20045;-72
2021/04/27 09:37:22;;;;;;;2.97;2.10;;;;;;;36.48;5.48;100237.00;3578182;40;20063;-73
2021/04/27 09:39:51;;;;;;;5.28;3.15;;;;;;;37.17;5.38;100234.84;3578495;40;20033;-73
2021/04/27 09:42:19;;;;;;;6.88;2.60;;;;;;;37.95;4.38;100231.09;3572465;40;20025;-71
2021/04/27 09:44:50;;;;;;;5.32;2.30;;;;;;;37.68;4.85;100228.78;3568834;40;20038;-72
2021/04/27 09:47:21;;;;;;;2.13;1.65;;;;;;;36.90;4.92;100239.88;3565595;40;20109;-69
2021/04/27 09:50:02;;;;;;;3.60;2.00;;;;;;;34.64;5.78;100233.78;3566913;40;20077;-71
2021/04/27 09:52:30;;;;;;;2.47;2.00;;;;;;;29.78;8.43;100246.38;3566477;40;20516;-69
2021/04/27 09:54:58;;;;;;;2.55;2.10;;;;;;;26.13;10.21;100252.84;3568123;40;20077;-70
2021/04/27 09:57:26;;;;;;;2.28;1.88;;;;;;;23.98;11.63;100265.22;3568469;40;20038;-70
2021/04/27 09:59:52;;;;;;;3.17;2.00;;;;;;;22.61;13.12;100259.03;3567891;40;20029;-69
2021/04/27 10:02:21;;;;;;;4.30;1.90;;;;;;;21.61;13.57;100262.22;3567979;40;20418;-69
2021/04/27 10:04:52;;;;;;;4.53;2.28;;;;;;;21.17;13.58;100262.38;3568561;40;20437;-70
2021/04/27 10:07:19;;;;;;;2.70;1.95;;;;;;;20.58;14.37;100265.41;3568322;40;20048;-71
2021/04/27 10:09:49;;;;;;;2.63;2.33;;;;;;;20.17;14.61;100265.97;3568364;40;20037;-71
2021/04/27 10:12:18;;;;;;;3.50;1.98;;;;;;;19.91;14.50;100270.66;3568523;40;20078;-70
2021/04/27 10:14:48;;;;;;;2.53;2.08;;;;;;;19.39;14.76;100271.91;3568321;40;20037;-70
2021/04/27 10:17:17;;;;;;;2.78;2.03;;;;;;;18.70;15.81;100266.31;3570725;40;20295;-69
2021/04/27 10:19:44;;;;;;;2.65;1.98;;;;;;;18.17;16.21;100264.78;3573884;40;20335;-69
2021/04/27 10:22:11;;;;;;;2.95;1.92;;;;;;;17.75;16.17;100260.63;3581471;40;20033;-67
2021/04/27 10:24:39;;;;;;;3.15;2.13;;;;;;;17.27;16.74;100266.38;3583320;40;20113;-68
2021/04/27 10:27:06;;;;;;;4.30;2.17;;;;;;;16.91;17.11;100263.50;3580989;40;20069;-67
2021/04/27 10:29:32;;;;;;;3.38;2.22;;;;;;;16.58;17.20;100266.44;3581806;40;20028;-67
2021/04/27 10:32:19;;;;;;;3.33;2.70;;;;;;;16.29;18.28;100261.19;3584137;40;20037;-67
2021/04/27 10:35:09;;;;;;;3.55;2.30;;;;;;;16.26;18.25;100260.53;3579503;40;20033;-66
2021/04/27 10:37:58;;;;;;;3.47;2.28;;;;;;;16.08;19.01;100258.06;3584063;40;20025;-66
2021/04/27 10:40:53;;;;;;;2.47;1.98;;;;;;;16.32;19.32;100254.84;3577123;40;20403;-69
2021/04/27 10:43:37;;;;;;;3.30;2.00;;;;;;;16.38;18.91;100257.09;3580805;40;20069;-68
2021/04/27 10:46:12;;;;;;;2.58;1.88;;;;;;;16.19;18.46;100248.59;3580208;40;20046;-69
2021/04/27 10:48:41;;;;;;;4.50;2.47;;;;;;;16.39;18.79;100248.22;3582772;40;20127;-67
2021/04/27 10:51:36;;;;;;;2.85;2.10;;;;;;;16.93;18.63;100243.06;3581884;40;20036;-68
2021/04/27 10:54:10;;;;;;;2.72;2.17;;;;;;;17.56;17.95;100235.31;3584330;40;20037;-68
2021/04/27 10:56:40;;;;;;;6.43;2.75;;;;;;;18.11;17.45;100234.19;3579623;40;20032;-70
2021/04/27 10:59:09;;;;;;;4.93;2.53;;;;;;;18.45;17.33;100227.38;3586063;40;20041;-69
2021/04/27 11:01:37;;;;;;;4.47;2.40;;;;;;;18.47;16.59;100222.78;3577413;40;20122;-70
2021/04/27 11:04:05;;;;;;;2.58;1.80;;;;;;;18.39;17.04;100222.50;3578126;40;20040;-68
2021/04/27 11:06:32;;;;;;;4.00;2.10;;;;;;;18.68;16.60;100231.06;3578461;40;20043;-68
2021/04/27 11:09:10;;;;;;;2.03;1.83;;;;;;;18.70;16.22;100220.31;3578999;40;20067;-68
2021/04/27 11:11:36;;;;;;;5.03;2.40;;;;;;;18.70;16.61;100221.16;3578094;40;20108;-69
2021/04/27 11:14:17;;;;;;;3.28;1.83;;;;;;;18.63;16.44;100230.53;3578828;40;20041;-69
2021/04/27 11:16:46;;;;;;;2.97;2.30;;;;;;;18.43;17.00;100223.97;3578196;40;20025;-69
2021/04/27 11:19:41;;;;;;;3.13;2.40;;;;;;;18.18;17.37;100229.31;3578924;40;20127;-68
2021/04/27 11:22:30;;;;;;;3.10;2.15;;;;;;;18.09;17.73;100222.84;3578159;40;20110;-69
2021/04/27 11:24:57;;;;;;;3.78;2.40;;;;;;;17.86;17.87;100220.94;3578017;40;20325;-69
2021/04/27 11:27:29;;;;;;;4.10;2.50;;;;;;;17.61;17.62;100227.88;3577614;40;20037;-69
2021/04/27 11:30:04;;;;;;;2.80;2.15;;;;;;;17.33;17.78;100222.75;3577958;40;20022;-69